sensor_id;sensor_type;location;lat;lon;timestamp;P1;P2;P0
49708;PMS5003;35601;55.902;13.606;2023-10-08T00:01:11;1;1;
49708;PMS5003;35601;55.902;13.606;2023-10-08T00:03:37;0;0;
49708;PMS5003;35601;55.902;13.606;2023-10-08T00:06:02;2;0;
49708;PMS5003;35601;55.902;13.606;2023-10-08T00:08:27;2;2;
49708;PMS5003;35601;55.902;13.606;2023-10-08T00:10:53;1;1;
49708;PMS5003;35601;55.902;13.606;2023-10-08T00:13:18;2;1;
49708;PMS5003;35601;55.902;13.606;2023-10-08T00:15:44;0;0;
49708;PMS5003;35601;55.902;13.606;2023-10-08T00:18:09;1;1;
49708;PMS5003;35601;55.902;13.606;2023-10-08T00:20:34;0;0;
49708;PMS5003;35601;55.902;13.606;2023-10-08T00:22:59;0;0;
49708;PMS5003;35601;55.902;13.606;2023-10-08T00:25:25;1;1;
49708;PMS5003;35601;55.902;13.606;2023-10-08T00:27:50;0;0;
49708;PMS5003;35601;55.902;13.606;2023-10-08T00:30:16;1;1;
49708;PMS5003;35601;55.902;13.606;2023-10-08T00:32:41;0;0;
49708;PMS5003;35601;55.902;13.606;2023-10-08T00:35:06;1;1;
49708;PMS5003;35601;55.902;13.606;2023-10-08T00:37:32;1;1;
49708;PMS5003;35601;55.902;13.606;2023-10-08T00:39:57;0;0;
49708;PMS5003;35601;55.902;13.606;2023-10-08T00:42:22;1;1;
49708;PMS5003;35601;55.902;13.606;2023-10-08T00:44:48;0;0;
49708;PMS5003;35601;55.902;13.606;2023-10-08T00:47:14;0;0;
49708;PMS5003;35601;55.902;13.606;2023-10-08T00:49:38;1;1;
49708;PMS5003;35601;55.902;13.606;2023-10-08T00:52:04;1;0;
49708;PMS5003;35601;55.902;13.606;2023-10-08T00:54:29;0;0;
49708;PMS5003;35601;55.902;13.606;2023-10-08T00:56:55;0;0;
49708;PMS5003;35601;55.902;13.606;2023-10-08T00:59:20;0;0;
49708;PMS5003;35601;55.902;13.606;2023-10-08T01:01:46;1;0;
49708;PMS5003;35601;55.902;13.606;2023-10-08T01:04:15;1;1;
49708;PMS5003;35601;55.902;13.606;2023-10-08T01:06:36;1;0;
49708;PMS5003;35601;55.902;13.606;2023-10-08T01:09:02;2;0;
49708;PMS5003;35601;55.902;13.606;2023-10-08T01:11:27;0;0;
49708;PMS5003;35601;55.902;13.606;2023-10-08T01:13:53;2;1;
49708;PMS5003;35601;55.902;13.606;2023-10-08T01:16:18;0;0;
49708;PMS5003;35601;55.902;13.606;2023-10-08T01:18:43;0;0;
49708;PMS5003;35601;55.902;13.606;2023-10-08T01:21:09;0;0;
49708;PMS5003;35601;55.902;13.606;2023-10-08T01:23:34;0;0;
49708;PMS5003;35601;55.902;13.606;2023-10-08T01:26:00;0;0;
49708;PMS5003;35601;55.902;13.606;2023-10-08T01:28:25;0;0;
49708;PMS5003;35601;55.902;13.606;2023-10-08T01:30:51;0;0;
49708;PMS5003;35601;55.902;13.606;2023-10-08T01:33:16;0;0;
49708;PMS5003;35601;55.902;13.606;2023-10-08T01:35:41;0;0;
49708;PMS5003;35601;55.902;13.606;2023-10-08T01:38:06;0;0;
49708;PMS5003;35601;55.902;13.606;2023-10-08T01:40:32;2;0;
49708;PMS5003;35601;55.902;13.606;2023-10-08T01:42:57;0;0;
49708;PMS5003;35601;55.902;13.606;2023-10-08T01:45:23;0;0;
49708;PMS5003;35601;55.902;13.606;2023-10-08T01:47:48;0;0;
49708;PMS5003;35601;55.902;13.606;2023-10-08T01:50:13;0;0;
49708;PMS5003;35601;55.902;13.606;2023-10-08T01:52:39;1;1;
49708;PMS5003;35601;55.902;13.606;2023-10-08T01:55:05;1;1;
49708;PMS5003;35601;55.902;13.606;2023-10-08T01:57:30;0;0;
49708;PMS5003;35601;55.902;13.606;2023-10-08T01:59:55;0;0;
49708;PMS5003;35601;55.902;13.606;2023-10-08T02:02:20;0;0;
49708;PMS5003;35601;55.902;13.606;2023-10-08T02:04:46;0;0;
49708;PMS5003;35601;55.902;13.606;2023-10-08T02:07:11;0;0;
49708;PMS5003;35601;55.902;13.606;2023-10-08T02:09:37;1;0;
49708;PMS5003;35601;55.902;13.606;2023-10-08T02:12:02;3;1;
49708;PMS5003;35601;55.902;13.606;2023-10-08T02:14:27;1;1;
49708;PMS5003;35601;55.902;13.606;2023-10-08T02:16:53;0;0;
49708;PMS5003;35601;55.902;13.606;2023-10-08T02:19:18;0;0;
49708;PMS5003;35601;55.902;13.606;2023-10-08T02:21:44;0;0;
49708;PMS5003;35601;55.902;13.606;2023-10-08T02:24:09;0;0;
49708;PMS5003;35601;55.902;13.606;2023-10-08T02:26:34;0;0;
49708;PMS5003;35601;55.902;13.606;2023-10-08T02:29:00;0;0;
49708;PMS5003;35601;55.902;13.606;2023-10-08T02:31:25;0;0;
49708;PMS5003;35601;55.902;13.606;2023-10-08T02:33:51;0;0;
49708;PMS5003;35601;55.902;13.606;2023-10-08T02:36:16;1;1;
49708;PMS5003;35601;55.902;13.606;2023-10-08T02:38:41;0;0;
49708;PMS5003;35601;55.902;13.606;2023-10-08T02:41:07;0;0;
49708;PMS5003;35601;55.902;13.606;2023-10-08T02:43:32;0;0;
49708;PMS5003;35601;55.902;13.606;2023-10-08T02:45:57;1;0;
49708;PMS5003;35601;55.902;13.606;2023-10-08T02:48:23;0;0;
49708;PMS5003;35601;55.902;13.606;2023-10-08T02:50:48;0;0;
49708;PMS5003;35601;55.902;13.606;2023-10-08T02:53:14;0;0;
49708;PMS5003;35601;55.902;13.606;2023-10-08T02:55:39;1;1;
49708;PMS5003;35601;55.902;13.606;2023-10-08T02:58:04;1;1;
49708;PMS5003;35601;55.902;13.606;2023-10-08T03:00:30;1;1;
49708;PMS5003;35601;55.902;13.606;2023-10-08T03:02:56;2;0;
49708;PMS5003;35601;55.902;13.606;2023-10-08T03:05:21;1;1;
49708;PMS5003;35601;55.902;13.606;2023-10-08T03:07:46;0;0;
49708;PMS5003;35601;55.902;13.606;2023-10-08T03:10:11;0;0;
49708;PMS5003;35601;55.902;13.606;2023-10-08T03:12:37;0;0;
49708;PMS5003;35601;55.902;13.606;2023-10-08T03:15:02;2;1;
49708;PMS5003;35601;55.902;13.606;2023-10-08T03:17:27;0;0;
49708;PMS5003;35601;55.902;13.606;2023-10-08T03:19:53;1;0;
49708;PMS5003;35601;55.902;13.606;2023-10-08T03:22:18;2;0;
49708;PMS5003;35601;55.902;13.606;2023-10-08T03:24:43;1;1;
49708;PMS5003;35601;55.902;13.606;2023-10-08T03:27:09;2;2;
49708;PMS5003;35601;55.902;13.606;2023-10-08T03:29:34;1;1;
49708;PMS5003;35601;55.902;13.606;2023-10-08T03:31:59;1;1;
49708;PMS5003;35601;55.902;13.606;2023-10-08T03:34:25;1;1;
49708;PMS5003;35601;55.902;13.606;2023-10-08T03:36:50;2;2;
49708;PMS5003;35601;55.902;13.606;2023-10-08T03:39:16;1;1;
49708;PMS5003;35601;55.902;13.606;2023-10-08T03:41:41;2;2;
49708;PMS5003;35601;55.902;13.606;2023-10-08T03:44:06;1;1;
49708;PMS5003;35601;55.902;13.606;2023-10-08T03:46:32;1;0;
49708;PMS5003;35601;55.902;13.606;2023-10-08T03:48:57;1;1;
49708;PMS5003;35601;55.902;13.606;2023-10-08T03:51:22;1;1;
49708;PMS5003;35601;55.902;13.606;2023-10-08T03:53:48;0;0;
49708;PMS5003;35601;55.902;13.606;2023-10-08T03:56:13;1;0;
49708;PMS5003;35601;55.902;13.606;2023-10-08T03:58:38;0;0;
49708;PMS5003;35601;55.902;13.606;2023-10-08T04:01:03;0;0;
49708;PMS5003;35601;55.902;13.606;2023-10-08T04:03:29;1;1;
49708;PMS5003;35601;55.902;13.606;2023-10-08T04:05:54;2;1;
49708;PMS5003;35601;55.902;13.606;2023-10-08T04:08:19;0;0;
49708;PMS5003;35601;55.902;13.606;2023-10-08T04:10:45;0;0;
49708;PMS5003;35601;55.902;13.606;2023-10-08T04:13:10;1;1;
49708;PMS5003;35601;55.902;13.606;2023-10-08T04:15:35;0;0;
49708;PMS5003;35601;55.902;13.606;2023-10-08T04:18:01;2;2;
49708;PMS5003;35601;55.902;13.606;2023-10-08T04:20:26;2;2;
49708;PMS5003;35601;55.902;13.606;2023-10-08T04:22:51;2;2;
49708;PMS5003;35601;55.902;13.606;2023-10-08T04:25:17;4;3;
49708;PMS5003;35601;55.902;13.606;2023-10-08T04:27:42;0;0;
49708;PMS5003;35601;55.902;13.606;2023-10-08T04:30:08;1;1;
49708;PMS5003;35601;55.902;13.606;2023-10-08T04:32:33;1;1;
49708;PMS5003;35601;55.902;13.606;2023-10-08T04:34:58;2;2;
49708;PMS5003;35601;55.902;13.606;2023-10-08T04:37:24;5;3;
49708;PMS5003;35601;55.902;13.606;2023-10-08T04:39:49;2;2;
49708;PMS5003;35601;55.902;13.606;2023-10-08T04:42:15;2;2;
49708;PMS5003;35601;55.902;13.606;2023-10-08T04:44:40;3;2;
49708;PMS5003;35601;55.902;13.606;2023-10-08T04:47:06;5;2;
49708;PMS5003;35601;55.902;13.606;2023-10-08T04:49:30;2;2;
49708;PMS5003;35601;55.902;13.606;2023-10-08T04:51:58;3;3;
49708;PMS5003;35601;55.902;13.606;2023-10-08T04:54:21;3;1;
49708;PMS5003;35601;55.902;13.606;2023-10-08T04:56:46;2;1;
49708;PMS5003;35601;55.902;13.606;2023-10-08T04:59:12;2;2;
49708;PMS5003;35601;55.902;13.606;2023-10-08T05:01:37;2;2;
49708;PMS5003;35601;55.902;13.606;2023-10-08T05:04:03;2;2;
49708;PMS5003;35601;55.902;13.606;2023-10-08T05:06:29;1;1;
49708;PMS5003;35601;55.902;13.606;2023-10-08T05:08:53;1;1;
49708;PMS5003;35601;55.902;13.606;2023-10-08T05:11:18;1;1;
49708;PMS5003;35601;55.902;13.606;2023-10-08T05:13:44;2;1;
49708;PMS5003;35601;55.902;13.606;2023-10-08T05:16:09;0;0;
49708;PMS5003;35601;55.902;13.606;2023-10-08T05:18:35;1;1;
49708;PMS5003;35601;55.902;13.606;2023-10-08T05:21:00;1;1;
49708;PMS5003;35601;55.902;13.606;2023-10-08T05:23:25;1;1;
49708;PMS5003;35601;55.902;13.606;2023-10-08T05:25:51;2;2;
49708;PMS5003;35601;55.902;13.606;2023-10-08T05:28:16;1;1;
49708;PMS5003;35601;55.902;13.606;2023-10-08T05:30:41;2;2;
49708;PMS5003;35601;55.902;13.606;2023-10-08T05:33:07;2;2;
49708;PMS5003;35601;55.902;13.606;2023-10-08T05:35:32;3;2;
49708;PMS5003;35601;55.902;13.606;2023-10-08T05:37:58;2;2;
49708;PMS5003;35601;55.902;13.606;2023-10-08T05:40:23;1;1;
49708;PMS5003;35601;55.902;13.606;2023-10-08T05:42:48;1;1;
49708;PMS5003;35601;55.902;13.606;2023-10-08T05:45:14;1;1;
49708;PMS5003;35601;55.902;13.606;2023-10-08T05:47:39;6;5;
49708;PMS5003;35601;55.902;13.606;2023-10-08T05:50:05;8;5;
49708;PMS5003;35601;55.902;13.606;2023-10-08T05:52:30;12;11;
49708;PMS5003;35601;55.902;13.606;2023-10-08T05:54:55;9;8;
49708;PMS5003;35601;55.902;13.606;2023-10-08T05:57:20;8;8;
49708;PMS5003;35601;55.902;13.606;2023-10-08T05:59:46;7;4;
49708;PMS5003;35601;55.902;13.606;2023-10-08T06:02:11;2;2;
49708;PMS5003;35601;55.902;13.606;2023-10-08T06:04:36;2;2;
49708;PMS5003;35601;55.902;13.606;2023-10-08T06:07:02;3;3;
49708;PMS5003;35601;55.902;13.606;2023-10-08T06:09:27;4;3;
49708;PMS5003;35601;55.902;13.606;2023-10-08T06:11:53;7;3;
49708;PMS5003;35601;55.902;13.606;2023-10-08T06:14:18;7;7;
49708;PMS5003;35601;55.902;13.606;2023-10-08T06:16:43;10;10;
49708;PMS5003;35601;55.902;13.606;2023-10-08T06:19:09;10;9;
49708;PMS5003;35601;55.902;13.606;2023-10-08T06:21:34;10;6;
49708;PMS5003;35601;55.902;13.606;2023-10-08T06:23:59;5;5;
49708;PMS5003;35601;55.902;13.606;2023-10-08T06:26:25;10;8;
49708;PMS5003;35601;55.902;13.606;2023-10-08T06:28:50;12;12;
49708;PMS5003;35601;55.902;13.606;2023-10-08T06:31:16;12;10;
49708;PMS5003;35601;55.902;13.606;2023-10-08T06:33:41;9;9;
49708;PMS5003;35601;55.902;13.606;2023-10-08T06:36:06;8;5;
49708;PMS5003;35601;55.902;13.606;2023-10-08T06:38:32;8;6;
49708;PMS5003;35601;55.902;13.606;2023-10-08T06:40:57;8;8;
49708;PMS5003;35601;55.902;13.606;2023-10-08T06:43:22;9;5;
49708;PMS5003;35601;55.902;13.606;2023-10-08T06:45:48;8;8;
49708;PMS5003;35601;55.902;13.606;2023-10-08T06:48:13;8;4;
49708;PMS5003;35601;55.902;13.606;2023-10-08T06:50:38;12;9;
49708;PMS5003;35601;55.902;13.606;2023-10-08T06:53:04;6;5;
49708;PMS5003;35601;55.902;13.606;2023-10-08T06:55:29;5;4;
49708;PMS5003;35601;55.902;13.606;2023-10-08T06:57:54;2;2;
49708;PMS5003;35601;55.902;13.606;2023-10-08T07:00:20;2;1;
49708;PMS5003;35601;55.902;13.606;2023-10-08T07:02:45;4;2;
49708;PMS5003;35601;55.902;13.606;2023-10-08T07:05:10;1;1;
49708;PMS5003;35601;55.902;13.606;2023-10-08T07:07:36;2;2;
49708;PMS5003;35601;55.902;13.606;2023-10-08T07:10:01;3;1;
49708;PMS5003;35601;55.902;13.606;2023-10-08T07:12:26;2;2;
49708;PMS5003;35601;55.902;13.606;2023-10-08T07:14:52;3;3;
49708;PMS5003;35601;55.902;13.606;2023-10-08T07:17:17;3;2;
49708;PMS5003;35601;55.902;13.606;2023-10-08T07:19:42;1;1;
49708;PMS5003;35601;55.902;13.606;2023-10-08T07:22:08;1;1;
49708;PMS5003;35601;55.902;13.606;2023-10-08T07:24:33;2;2;
49708;PMS5003;35601;55.902;13.606;2023-10-08T07:26:58;2;2;
49708;PMS5003;35601;55.902;13.606;2023-10-08T07:29:24;2;2;
49708;PMS5003;35601;55.902;13.606;2023-10-08T07:31:49;1;1;
49708;PMS5003;35601;55.902;13.606;2023-10-08T07:34:15;4;2;
49708;PMS5003;35601;55.902;13.606;2023-10-08T07:36:40;3;1;
49708;PMS5003;35601;55.902;13.606;2023-10-08T07:39:05;2;1;
49708;PMS5003;35601;55.902;13.606;2023-10-08T07:41:30;1;1;
49708;PMS5003;35601;55.902;13.606;2023-10-08T07:43:56;1;1;
49708;PMS5003;35601;55.902;13.606;2023-10-08T07:46:21;3;2;
49708;PMS5003;35601;55.902;13.606;2023-10-08T07:48:46;2;2;
49708;PMS5003;35601;55.902;13.606;2023-10-08T07:51:13;2;2;
49708;PMS5003;35601;55.902;13.606;2023-10-08T07:53:37;3;2;
49708;PMS5003;35601;55.902;13.606;2023-10-08T07:56:03;5;5;
49708;PMS5003;35601;55.902;13.606;2023-10-08T07:58:28;2;2;
49708;PMS5003;35601;55.902;13.606;2023-10-08T08:00:53;2;2;
49708;PMS5003;35601;55.902;13.606;2023-10-08T08:03:19;2;0;
49708;PMS5003;35601;55.902;13.606;2023-10-08T08:05:44;1;1;
49708;PMS5003;35601;55.902;13.606;2023-10-08T08:08:09;1;1;
49708;PMS5003;35601;55.902;13.606;2023-10-08T08:10:34;3;1;
49708;PMS5003;35601;55.902;13.606;2023-10-08T08:13:00;1;1;
49708;PMS5003;35601;55.902;13.606;2023-10-08T08:15:25;2;0;
49708;PMS5003;35601;55.902;13.606;2023-10-08T08:17:50;0;0;
49708;PMS5003;35601;55.902;13.606;2023-10-08T08:20:16;2;1;
49708;PMS5003;35601;55.902;13.606;2023-10-08T08:22:41;3;3;
49708;PMS5003;35601;55.902;13.606;2023-10-08T08:25:06;1;1;
49708;PMS5003;35601;55.902;13.606;2023-10-08T08:27:31;0;0;
49708;PMS5003;35601;55.902;13.606;2023-10-08T08:29:56;0;0;
49708;PMS5003;35601;55.902;13.606;2023-10-08T08:32:22;0;0;
49708;PMS5003;35601;55.902;13.606;2023-10-08T08:34:47;1;0;
49708;PMS5003;35601;55.902;13.606;2023-10-08T08:37:12;0;0;
49708;PMS5003;35601;55.902;13.606;2023-10-08T08:39:38;0;0;
49708;PMS5003;35601;55.902;13.606;2023-10-08T08:42:03;1;1;
49708;PMS5003;35601;55.902;13.606;2023-10-08T08:44:28;1;1;
49708;PMS5003;35601;55.902;13.606;2023-10-08T08:46:53;0;0;
49708;PMS5003;35601;55.902;13.606;2023-10-08T08:49:19;1;1;
49708;PMS5003;35601;55.902;13.606;2023-10-08T08:51:44;0;0;
49708;PMS5003;35601;55.902;13.606;2023-10-08T08:54:09;1;1;
49708;PMS5003;35601;55.902;13.606;2023-10-08T08:56:35;0;0;
49708;PMS5003;35601;55.902;13.606;2023-10-08T08:59:00;0;0;
49708;PMS5003;35601;55.902;13.606;2023-10-08T09:01:25;0;0;
49708;PMS5003;35601;55.902;13.606;2023-10-08T09:03:50;0;0;
49708;PMS5003;35601;55.902;13.606;2023-10-08T09:06:15;0;0;
49708;PMS5003;35601;55.902;13.606;2023-10-08T09:08:41;1;1;
49708;PMS5003;35601;55.902;13.606;2023-10-08T09:11:06;0;0;
49708;PMS5003;35601;55.902;13.606;2023-10-08T09:13:31;2;0;
49708;PMS5003;35601;55.902;13.606;2023-10-08T09:15:56;0;0;
49708;PMS5003;35601;55.902;13.606;2023-10-08T09:18:21;1;0;
49708;PMS5003;35601;55.902;13.606;2023-10-08T09:20:47;0;0;
49708;PMS5003;35601;55.902;13.606;2023-10-08T09:23:12;0;0;
49708;PMS5003;35601;55.902;13.606;2023-10-08T09:25:37;0;0;
49708;PMS5003;35601;55.902;13.606;2023-10-08T09:28:02;0;0;
49708;PMS5003;35601;55.902;13.606;2023-10-08T09:30:28;2;0;
49708;PMS5003;35601;55.902;13.606;2023-10-08T09:32:53;1;0;
49708;PMS5003;35601;55.902;13.606;2023-10-08T09:35:18;0;0;
49708;PMS5003;35601;55.902;13.606;2023-10-08T09:37:43;0;0;
49708;PMS5003;35601;55.902;13.606;2023-10-08T09:40:09;0;0;
49708;PMS5003;35601;55.902;13.606;2023-10-08T09:42:33;0;0;
49708;PMS5003;35601;55.902;13.606;2023-10-08T09:44:59;2;0;
49708;PMS5003;35601;55.902;13.606;2023-10-08T09:47:24;1;0;
49708;PMS5003;35601;55.902;13.606;2023-10-08T09:49:51;0;0;
49708;PMS5003;35601;55.902;13.606;2023-10-08T09:52:16;1;0;
49708;PMS5003;35601;55.902;13.606;2023-10-08T09:54:43;0;0;
49708;PMS5003;35601;55.902;13.606;2023-10-08T09:57:05;0;0;
49708;PMS5003;35601;55.902;13.606;2023-10-08T09:59:30;1;1;
49708;PMS5003;35601;55.902;13.606;2023-10-08T10:01:55;0;0;
49708;PMS5003;35601;55.902;13.606;2023-10-08T10:04:22;1;1;
49708;PMS5003;35601;55.902;13.606;2023-10-08T10:06:45;0;0;
49708;PMS5003;35601;55.902;13.606;2023-10-08T10:11:36;1;0;
49708;PMS5003;35601;55.902;13.606;2023-10-08T10:14:02;0;0;
49708;PMS5003;35601;55.902;13.606;2023-10-08T10:16:26;0;0;
49708;PMS5003;35601;55.902;13.606;2023-10-08T10:18:54;0;0;
49708;PMS5003;35601;55.902;13.606;2023-10-08T10:21:24;0;0;
49708;PMS5003;35601;55.902;13.606;2023-10-08T10:23:42;0;0;
49708;PMS5003;35601;55.902;13.606;2023-10-08T10:28:32;0;0;
49708;PMS5003;35601;55.902;13.606;2023-10-08T10:30:57;0;0;
49708;PMS5003;35601;55.902;13.606;2023-10-08T10:35:49;0;0;
49708;PMS5003;35601;55.902;13.606;2023-10-08T10:38:23;0;0;
49708;PMS5003;35601;55.902;13.606;2023-10-08T10:40:38;0;0;
49708;PMS5003;35601;55.902;13.606;2023-10-08T10:43:03;0;0;
49708;PMS5003;35601;55.902;13.606;2023-10-08T10:45:28;0;0;
49708;PMS5003;35601;55.902;13.606;2023-10-08T10:47:53;1;1;
49708;PMS5003;35601;55.902;13.606;2023-10-08T10:50:19;0;0;
49708;PMS5003;35601;55.902;13.606;2023-10-08T10:52:44;0;0;
49708;PMS5003;35601;55.902;13.606;2023-10-08T10:55:09;0;0;
49708;PMS5003;35601;55.902;13.606;2023-10-08T10:57:34;0;0;
49708;PMS5003;35601;55.902;13.606;2023-10-08T11:00:00;0;0;
49708;PMS5003;35601;55.902;13.606;2023-10-08T11:02:26;0;0;
49708;PMS5003;35601;55.902;13.606;2023-10-08T11:04:50;0;0;
49708;PMS5003;35601;55.902;13.606;2023-10-08T11:07:15;0;0;
49708;PMS5003;35601;55.902;13.606;2023-10-08T11:09:40;0;0;
49708;PMS5003;35601;55.902;13.606;2023-10-08T11:12:06;0;0;
49708;PMS5003;35601;55.902;13.606;2023-10-08T11:14:30;1;0;
49708;PMS5003;35601;55.902;13.606;2023-10-08T11:16:55;0;0;
49708;PMS5003;35601;55.902;13.606;2023-10-08T11:19:21;0;0;
49708;PMS5003;35601;55.902;13.606;2023-10-08T11:21:49;3;3;
49708;PMS5003;35601;55.902;13.606;2023-10-08T11:24:11;0;0;
49708;PMS5003;35601;55.902;13.606;2023-10-08T11:26:36;0;0;
49708;PMS5003;35601;55.902;13.606;2023-10-08T11:29:02;0;0;
49708;PMS5003;35601;55.902;13.606;2023-10-08T11:31:27;0;0;
49708;PMS5003;35601;55.902;13.606;2023-10-08T11:33:52;2;2;
49708;PMS5003;35601;55.902;13.606;2023-10-08T11:36:18;0;0;
49708;PMS5003;35601;55.902;13.606;2023-10-08T11:38:43;0;0;
49708;PMS5003;35601;55.902;13.606;2023-10-08T11:41:10;0;0;
49708;PMS5003;35601;55.902;13.606;2023-10-08T11:43:33;0;0;
49708;PMS5003;35601;55.902;13.606;2023-10-08T11:45:58;0;0;
49708;PMS5003;35601;55.902;13.606;2023-10-08T11:48:23;0;0;
49708;PMS5003;35601;55.902;13.606;2023-10-08T11:50:49;0;0;
49708;PMS5003;35601;55.902;13.606;2023-10-08T11:53:14;0;0;
49708;PMS5003;35601;55.902;13.606;2023-10-08T11:55:39;0;0;
49708;PMS5003;35601;55.902;13.606;2023-10-08T11:58:05;1;0;
49708;PMS5003;35601;55.902;13.606;2023-10-08T12:00:29;0;0;
49708;PMS5003;35601;55.902;13.606;2023-10-08T12:02:54;0;0;
49708;PMS5003;35601;55.902;13.606;2023-10-08T12:05:20;1;0;
49708;PMS5003;35601;55.902;13.606;2023-10-08T12:07:45;0;0;
49708;PMS5003;35601;55.902;13.606;2023-10-08T12:10:10;0;0;
49708;PMS5003;35601;55.902;13.606;2023-10-08T12:12:35;0;0;
49708;PMS5003;35601;55.902;13.606;2023-10-08T12:15:00;0;0;
49708;PMS5003;35601;55.902;13.606;2023-10-08T12:17:25;0;0;
49708;PMS5003;35601;55.902;13.606;2023-10-08T12:19:50;2;0;
49708;PMS5003;35601;55.902;13.606;2023-10-08T12:22:16;0;0;
49708;PMS5003;35601;55.902;13.606;2023-10-08T12:24:41;0;0;
49708;PMS5003;35601;55.902;13.606;2023-10-08T12:27:06;0;0;
49708;PMS5003;35601;55.902;13.606;2023-10-08T12:29:31;0;0;
49708;PMS5003;35601;55.902;13.606;2023-10-08T12:31:56;0;0;
49708;PMS5003;35601;55.902;13.606;2023-10-08T12:34:22;0;0;
49708;PMS5003;35601;55.902;13.606;2023-10-08T12:36:47;2;0;
49708;PMS5003;35601;55.902;13.606;2023-10-08T12:39:12;0;0;
49708;PMS5003;35601;55.902;13.606;2023-10-08T12:41:37;0;0;
49708;PMS5003;35601;55.902;13.606;2023-10-08T12:44:02;0;0;
49708;PMS5003;35601;55.902;13.606;2023-10-08T12:46:27;0;0;
49708;PMS5003;35601;55.902;13.606;2023-10-08T12:48:53;0;0;
49708;PMS5003;35601;55.902;13.606;2023-10-08T12:51:18;0;0;
49708;PMS5003;35601;55.902;13.606;2023-10-08T12:53:43;0;0;
49708;PMS5003;35601;55.902;13.606;2023-10-08T12:56:09;0;0;
49708;PMS5003;35601;55.902;13.606;2023-10-08T12:58:35;0;0;
49708;PMS5003;35601;55.902;13.606;2023-10-08T13:00:59;0;0;
49708;PMS5003;35601;55.902;13.606;2023-10-08T13:03:24;0;0;
49708;PMS5003;35601;55.902;13.606;2023-10-08T13:05:49;0;0;
49708;PMS5003;35601;55.902;13.606;2023-10-08T13:08:14;0;0;
49708;PMS5003;35601;55.902;13.606;2023-10-08T13:10:39;0;0;
49708;PMS5003;35601;55.902;13.606;2023-10-08T13:13:04;0;0;
49708;PMS5003;35601;55.902;13.606;2023-10-08T13:15:30;0;0;
49708;PMS5003;35601;55.902;13.606;2023-10-08T13:17:55;0;0;
49708;PMS5003;35601;55.902;13.606;2023-10-08T13:20:20;0;0;
49708;PMS5003;35601;55.902;13.606;2023-10-08T13:22:45;1;1;
49708;PMS5003;35601;55.902;13.606;2023-10-08T13:25:10;0;0;
49708;PMS5003;35601;55.902;13.606;2023-10-08T13:27:36;0;0;
49708;PMS5003;35601;55.902;13.606;2023-10-08T13:30:01;2;0;
49708;PMS5003;35601;55.902;13.606;2023-10-08T13:32:26;0;0;
49708;PMS5003;35601;55.902;13.606;2023-10-08T13:34:51;1;0;
49708;PMS5003;35601;55.902;13.606;2023-10-08T13:37:16;0;0;
49708;PMS5003;35601;55.902;13.606;2023-10-08T13:39:42;0;0;
49708;PMS5003;35601;55.902;13.606;2023-10-08T13:42:07;1;0;
49708;PMS5003;35601;55.902;13.606;2023-10-08T13:44:32;0;0;
49708;PMS5003;35601;55.902;13.606;2023-10-08T13:46:57;1;0;
49708;PMS5003;35601;55.902;13.606;2023-10-08T13:49:22;0;0;
49708;PMS5003;35601;55.902;13.606;2023-10-08T13:51:48;0;0;
49708;PMS5003;35601;55.902;13.606;2023-10-08T13:54:13;0;0;
49708;PMS5003;35601;55.902;13.606;2023-10-08T13:56:38;0;0;
49708;PMS5003;35601;55.902;13.606;2023-10-08T13:59:03;0;0;
49708;PMS5003;35601;55.902;13.606;2023-10-08T14:01:29;0;0;
49708;PMS5003;35601;55.902;13.606;2023-10-08T14:03:54;0;0;
49708;PMS5003;35601;55.902;13.606;2023-10-08T14:06:19;2;0;
49708;PMS5003;35601;55.902;13.606;2023-10-08T14:08:44;0;0;
49708;PMS5003;35601;55.902;13.606;2023-10-08T14:11:10;0;0;
49708;PMS5003;35601;55.902;13.606;2023-10-08T14:13:34;0;0;
49708;PMS5003;35601;55.902;13.606;2023-10-08T14:16:00;0;0;
49708;PMS5003;35601;55.902;13.606;2023-10-08T14:18:25;0;0;
49708;PMS5003;35601;55.902;13.606;2023-10-08T14:20:50;0;0;
49708;PMS5003;35601;55.902;13.606;2023-10-08T14:23:15;0;0;
49708;PMS5003;35601;55.902;13.606;2023-10-08T14:25:40;0;0;
49708;PMS5003;35601;55.902;13.606;2023-10-08T14:28:06;0;0;
49708;PMS5003;35601;55.902;13.606;2023-10-08T14:30:31;0;0;
49708;PMS5003;35601;55.902;13.606;2023-10-08T14:32:56;0;0;
49708;PMS5003;35601;55.902;13.606;2023-10-08T14:35:21;0;0;
49708;PMS5003;35601;55.902;13.606;2023-10-08T14:37:46;0;0;
49708;PMS5003;35601;55.902;13.606;2023-10-08T14:40:12;0;0;
49708;PMS5003;35601;55.902;13.606;2023-10-08T14:42:37;0;0;
49708;PMS5003;35601;55.902;13.606;2023-10-08T14:45:02;0;0;
49708;PMS5003;35601;55.902;13.606;2023-10-08T14:47:27;0;0;
49708;PMS5003;35601;55.902;13.606;2023-10-08T14:49:53;0;0;
49708;PMS5003;35601;55.902;13.606;2023-10-08T14:52:18;1;0;
49708;PMS5003;35601;55.902;13.606;2023-10-08T14:54:43;0;0;
49708;PMS5003;35601;55.902;13.606;2023-10-08T14:57:08;0;0;
49708;PMS5003;35601;55.902;13.606;2023-10-08T14:59:33;0;0;
49708;PMS5003;35601;55.902;13.606;2023-10-08T15:01:59;0;0;
49708;PMS5003;35601;55.902;13.606;2023-10-08T15:04:24;0;0;
49708;PMS5003;35601;55.902;13.606;2023-10-08T15:06:49;1;0;
49708;PMS5003;35601;55.902;13.606;2023-10-08T15:09:14;0;0;
49708;PMS5003;35601;55.902;13.606;2023-10-08T15:11:39;0;0;
49708;PMS5003;35601;55.902;13.606;2023-10-08T15:14:05;0;0;
49708;PMS5003;35601;55.902;13.606;2023-10-08T15:16:30;0;0;
49708;PMS5003;35601;55.902;13.606;2023-10-08T15:18:55;0;0;
49708;PMS5003;35601;55.902;13.606;2023-10-08T15:21:20;2;0;
49708;PMS5003;35601;55.902;13.606;2023-10-08T15:23:46;0;0;
49708;PMS5003;35601;55.902;13.606;2023-10-08T15:26:11;0;0;
49708;PMS5003;35601;55.902;13.606;2023-10-08T15:28:36;0;0;
49708;PMS5003;35601;55.902;13.606;2023-10-08T15:31:01;0;0;
49708;PMS5003;35601;55.902;13.606;2023-10-08T15:33:27;0;0;
49708;PMS5003;35601;55.902;13.606;2023-10-08T15:35:52;1;1;
49708;PMS5003;35601;55.902;13.606;2023-10-08T15:38:17;0;0;
49708;PMS5003;35601;55.902;13.606;2023-10-08T15:40:42;1;1;
49708;PMS5003;35601;55.902;13.606;2023-10-08T15:43:07;0;0;
49708;PMS5003;35601;55.902;13.606;2023-10-08T15:45:33;0;0;
49708;PMS5003;35601;55.902;13.606;2023-10-08T15:47:58;0;0;
49708;PMS5003;35601;55.902;13.606;2023-10-08T15:50:23;1;0;
49708;PMS5003;35601;55.902;13.606;2023-10-08T15:52:48;2;1;
49708;PMS5003;35601;55.902;13.606;2023-10-08T15:55:13;0;0;
49708;PMS5003;35601;55.902;13.606;2023-10-08T15:57:39;1;1;
49708;PMS5003;35601;55.902;13.606;2023-10-08T16:00:06;0;0;
49708;PMS5003;35601;55.902;13.606;2023-10-08T16:02:29;2;1;
49708;PMS5003;35601;55.902;13.606;2023-10-08T16:04:54;1;1;
49708;PMS5003;35601;55.902;13.606;2023-10-08T16:07:20;0;0;
49708;PMS5003;35601;55.902;13.606;2023-10-08T16:09:45;1;1;
49708;PMS5003;35601;55.902;13.606;2023-10-08T16:12:10;1;0;
49708;PMS5003;35601;55.902;13.606;2023-10-08T16:14:36;1;1;
49708;PMS5003;35601;55.902;13.606;2023-10-08T16:17:01;0;0;
49708;PMS5003;35601;55.902;13.606;2023-10-08T16:19:26;0;0;
49708;PMS5003;35601;55.902;13.606;2023-10-08T16:21:51;2;0;
49708;PMS5003;35601;55.902;13.606;2023-10-08T16:24:17;0;0;
49708;PMS5003;35601;55.902;13.606;2023-10-08T16:26:42;2;1;